• Join FlightAware (Why Join?)
  • Login
  • US Flag 
02:43PM EDT


 

Airport Tracker/Info


-or-


 

Live Flight TrackerFlight Track Log ✈ TRS1235 ✈ 31-Jan-2014 ✈ MDPC / PUJ - KMDW

Flight Track Log - Related Links

Times and Time Zones

All times are in EST time to prevent confusion due to time zone crossing. See the TRS1235 flight status page for this flight to view local times or setup timezone preferences in your user account.

Time Position Orientation Groundspeed Altitude Reporting Facility
EST Latitude Longitude Course Direction KTS MPH feet Rate Location/Type
03:50PM 19.0475 -69.0194 305° West 457 526 22,600  Level Miami Center
03:51PM 19.1194 -69.1294 305° West 457 526 24,300 1,680 Climbing Miami Center
03:52PM 19.1894 -69.2436 303° West 462 532 26,000 1,800 Climbing Miami Center
03:53PM 19.2653 -69.3536 306° West 467 537 27,900 1,980 Climbing Miami Center
03:54PM 19.3392 -69.4658 305° West 467 537 30,000 2,220 Climbing Miami Center
03:55PM 19.4067 -69.5719 304° West 467 537 32,400 2,280 Climbing Miami Center
03:56PM 19.4739 -69.6739 305° West 445 512 34,600 1,800 Climbing Miami Center
03:57PM 19.5389 -69.7758 304° West 431 496 36,100 1,200 Climbing Miami Center
03:58PM 19.6033 -69.8692 306° West 415 478 37,000 900 Climbing Miami Center
03:59PM 19.6683 -69.9739 303° West 415 478 37,900 480 Climbing Miami Center
04:00PM 19.7372 -70.0714 307° West 415 478 38,000  Climbing Miami Center
04:01PM 19.8019 -70.1739 304° West 415 478 38,000  Level Miami Center
04:02PM 19.8667 -70.2808 303° West 420 483 38,000  Level Miami Center
04:03PM 19.9333 -70.3792 306° West 420 483 38,000  Level Miami Center
04:04PM 20.0000 -70.4775 306° West 420 483 38,000  Level Miami Center
04:05PM 20.0644 -70.5803 304° West 420 483 38,000  Level Miami Center
04:06PM 20.1289 -70.6833 304° West 420 483 38,000  Level Miami Center
04:07PM 20.1933 -70.7819 305° West 420 483 38,000  Level Miami Center
04:08PM 20.2575 -70.8806 305° West 415 478 38,000  Level Miami Center
04:09PM 20.3239 -70.9839 304° West 415 478 38,000  Level Miami Center
04:10PM 20.3883 -71.0872 304° West 415 478 38,000  Level Miami Center
04:11PM 20.4706 -71.1722 316° Northwest 421 484 38,000  Level Miami Center
04:12PM 20.5656 -71.2611 319° Northwest 415 478 38,000  Level Miami Center
04:13PM 20.6539 -71.3394 320° Northwest 409 471 38,000  Level Miami Center
04:14PM 20.7400 -71.4203 319° Northwest 409 471 38,000  Level Miami Center
04:15PM 20.8283 -71.4989 320° Northwest 414 476 38,000  Level Miami Center
04:16PM 20.9144 -71.5797 319° Northwest 414 476 38,000  Level Miami Center
04:17PM 21.0008 -71.6608 319° Northwest 414 476 38,000  Level Miami Center
04:18PM 21.0889 -71.7419 319° Northwest 414 476 38,000  Level Miami Center
04:19PM 21.1750 -71.8231 319° Northwest 414 476 38,000  Level Miami Center
04:20PM 21.2631 -71.9022 320° Northwest 414 476 38,000  Level Miami Center
04:21PM 21.3514 -71.9836 319° Northwest 419 482 38,000  Level Miami Center
04:22PM 21.4394 -72.0650 319° Northwest 419 482 38,000  Level Miami Center
04:23PM 21.5253 -72.1467 318° Northwest 419 482 38,000  Level Miami Center
04:24PM 21.6133 -72.2283 319° Northwest 419 482 38,000  Level Miami Center
04:25PM 21.7014 -72.3125 318° Northwest 419 482 38,000  Level Miami Center
04:26PM 21.7917 -72.3944 320° Northwest 419 482 38,000  Level Miami Center
04:27PM 21.8775 -72.4742 319° Northwest 419 482 38,000  Level Miami Center
04:28PM 21.9633 -72.5564 318° Northwest 419 482 38,000  Level Miami Center
04:29PM 22.0511 -72.6408 318° Northwest 419 482 38,000  Level Miami Center
04:30PM 22.1389 -72.7231 319° Northwest 419 482 38,000  Level Miami Center
04:31PM 22.2311 -72.8078 320° Northwest 424 488 38,000  Level Miami Center
04:32PM 22.3167 -72.8903 318° Northwest 419 482 38,000  Level Miami Center
04:33PM 22.4086 -72.9683 322° Northwest 419 482 38,000  Level Miami Center
04:34PM 22.4814 -73.0447 316° Northwest 414 476 38,000  Level Miami Center
04:35PM 22.5672 -73.1278 318° Northwest 414 476 38,000  Level Miami Center
04:36PM 22.6633 -73.2150 320° Northwest 414 476 38,000  Level Miami Center
04:37PM 22.7508 -73.2958 320° Northwest 414 476 38,000  Level Miami Center
04:38PM 22.8342 -73.3792 317° Northwest 408 470 38,000  Level Miami Center
04:39PM 22.9217 -73.4647 318° Northwest 408 470 38,000  Level Miami Center
04:40PM 23.0111 -73.5436 321° Northwest 408 470 38,000  Level Miami Center
04:41PM 23.0967 -73.6294 317° Northwest 408 470 38,000  Level Miami Center
04:42PM 23.1797 -73.7108 318° Northwest 413 475 38,000  Level Miami Center
04:43PM 23.2672 -73.7947 319° Northwest 413 475 38,000  Level Miami Center
04:44PM 23.3483 -73.8767 317° Northwest 413 475 38,000  Level Miami Center
04:45PM 23.4356 -73.9583 319° Northwest 413 475 38,000  Level Miami Center
04:46PM 23.5228 -74.0422 319° Northwest 407 468 38,000  Level Miami Center
04:47PM 23.6036 -74.1244 317° Northwest 407 468 38,000  Level Miami Center
04:48PM 23.6908 -74.2064 319° Northwest 407 468 38,000  Level Miami Center
04:49PM 23.7758 -74.2864 319° Northwest 407 468 38,000  Level Miami Center
04:50PM 23.8608 -74.3711 318° Northwest 407 468 38,000  Level Miami Center
04:51PM 23.9436 -74.4536 318° Northwest 407 468 38,000  Level Miami Center
04:52PM 24.0286 -74.5361 318° Northwest 407 468 38,000  Level Miami Center
04:53PM 24.1133 -74.6186 318° Northwest 407 468 38,000  Level Miami Center
04:54PM 24.1983 -74.7036 318° Northwest 407 468 38,000  Level Miami Center
04:55PM 24.2831 -74.7889 317° Northwest 407 468 38,000  Level Miami Center
04:56PM 24.3656 -74.8697 318° Northwest 402 463 38,000  Level Miami Center
04:57PM 24.4503 -74.9528 318° Northwest 402 463 38,000  Level Miami Center
04:58PM 24.5328 -75.0358 318° Northwest 402 463 38,000  Level Miami Center
04:59PM 24.6175 -75.1217 317° Northwest 402 463 38,000  Level Miami Center
05:00PM 24.7000 -75.2006 319° Northwest 402 463 38,000  Level Miami Center
05:01PM 24.7822 -75.2886 316° Northwest 402 463 38,000  Level Miami Center
05:02PM 24.8647 -75.3722 317° Northwest 402 463 38,000  Level Miami Center
05:03PM 24.9492 -75.4539 319° Northwest 402 463 38,000  Level Miami Center
05:04PM 25.0314 -75.5375 317° Northwest 402 463 38,000  Level Miami Center
05:05PM 25.1136 -75.6217 317° Northwest 402 463 38,000  Level Miami Center
05:06PM 25.1978 -75.7058 318° Northwest 402 463 38,000  Level Miami Center
05:07PM 25.2675 -75.7786 317° Northwest 392 451 38,000  Level Miami Center
05:08PM 25.3536 -75.8631 318° Northwest 399 459 38,000  Level Miami Center
05:09PM 25.4419 -75.9497 318° Northwest 399 459 38,000  Level Miami Center
05:10PM 25.5219 -76.0344 316° Northwest 393 452 38,000  Level Miami Center
05:11PM 25.6061 -76.1167 319° Northwest 400 460 38,000  Level Miami Center
05:12PM 25.6878 -76.2014 317° Northwest 394 453 38,000  Level Miami Center
05:13PM 25.7697 -76.2842 318° Northwest 401 461 38,000  Level Miami Center
05:14PM 25.8536 -76.3669 318° Northwest 401 461 38,000  Level Miami Center
05:15PM 25.9375 -76.4542 317° Northwest 401 461 38,000  Level Miami Center
05:16PM 26.0192 -76.5397 317° Northwest 401 461 38,000  Level Miami Center
05:17PM 26.1008 -76.6228 318° Northwest 401 461 38,000  Level Miami Center
05:18PM 26.1867 -76.7106 317° Northwest 396 456 38,000  Level Miami Center
05:19PM 26.2703 -76.8008 316° Northwest 396 456 38,000  Level Miami Center
05:20PM 26.3519 -76.8842 318° Northwest 403 464 38,000  Level Miami Center
05:21PM 26.4333 -76.9700 317° Northwest 397 457 38,000  Level Miami Center
05:22PM 26.5167 -77.0561 317° Northwest 397 457 38,000  Level Miami Center
05:23PM 26.6003 -77.1422 317° Northwest 397 457 38,000  Level Miami Center
05:24PM 26.6836 -77.2331 316° Northwest 402 463 38,000  Level Miami Center
05:25PM 26.7731 -77.3172 320° Northwest 397 457 38,000  Level Miami Center
05:26PM 26.8586 -77.4106 316° Northwest 397 457 38,000  Level Miami Center
05:27PM 26.9314 -77.4878 317° Northwest 403 464 38,000  Level Miami Center
05:28PM 27.0122 -77.5839 313° West 408 470 38,000  Level Miami Center
05:29PM 27.0767 -77.6775 308° West 403 464 38,000  Level Miami Center
05:30PM 27.1386 -77.7900 302° West 403 464 38,000  Level Miami Center
05:31PM 27.1983 -77.8911 304° West 397 457 38,000  Level Miami Center
05:32PM 27.2603 -77.9897 305° West 392 451 38,000  Level Miami Center
05:33PM 27.3200 -78.1072 300° West 405 466 38,000  Level Miami Center
05:34PM 27.3839 -78.2039 307° West 405 466 38,100 480 Climbing Miami Center
05:35PM 27.4414 -78.3075 302° West 400 460 39,000 420 Climbing Miami Center
05:36PM 27.5092 -78.4092 307° West 400 460 39,000  Level Miami Center
05:37PM 27.5644 -78.5131 301° West 395 455 39,000  Level Miami Center
05:38PM 27.6258 -78.6169 304° West 395 455 39,000  Level Miami Center
05:39PM 27.6975 -78.7258 307° West 395 455 39,000  Level Miami Center
05:40PM 27.7589 -78.8278 304° West 395 455 39,000  Level Miami Center
05:41PM 27.8161 -78.9206 305° West 401 461 39,000  Level Miami Center
05:42PM 27.8794 -79.0225 305° West 401 461 39,000  Level Miami Center
05:43PM 27.9403 -79.1247 304° West 401 461 39,000  Level Miami Center
05:44PM 28.0033 -79.2272 305° West 401 461 39,000  Level Miami Center
05:45PM 28.0664 -79.3319 304° West 401 461 39,000  Level Miami Center
05:46PM 28.1314 -79.4347 306° West 401 461 39,000  Level Miami Center
05:47PM 28.1964 -79.5400 305° West 406 467 39,000  Level Miami Center
05:49PM 28.3333 -79.7703 304° West 400 460 39,000  Level Jacksonville Center
05:50PM 28.3983 -79.8747 305° West 400 460 39,000  Level Jacksonville Center
05:51PM 28.4614 -79.9811 304° West 405 466 39,000  Level Jacksonville Center
05:52PM 28.5283 -80.0903 305° West 410 472 39,000  Level Jacksonville Center
05:53PM 28.5933 -80.1997 304° West 410 472 39,000  Level Jacksonville Center
05:54PM 28.6581 -80.3067 305° West 410 472 39,000  Level Jacksonville Center
05:55PM 28.7228 -80.4164 304° West 410 472 39,000  Level Jacksonville Center
05:56PM 28.7875 -80.5261 304° West 410 472 39,000  Level Jacksonville Center
05:57PM 28.8625 -80.6308 309° West 410 472 39,000  Level Jacksonville Center
05:58PM 28.9475 -80.7239 316° Northwest 415 478 39,000  Level Jacksonville Center
05:59PM 29.0553 -80.7906 332° Northwest 427 491 39,000  Level Jacksonville Center
06:00PM 29.1708 -80.8475 337° Northwest 432 497 39,000  Level Jacksonville Center
06:01PM 29.2864 -80.8997 338° Northwest 437 503 39,000  Level Jacksonville Center
06:02PM 29.4000 -80.9569 336° Northwest 443 510 39,000  Level Jacksonville Center
06:03PM 29.5136 -81.0119 337° Northwest 443 510 39,000  Level Jacksonville Center
06:04PM 29.6292 -81.0672 337° Northwest 443 510 39,000  Level Jacksonville Center
06:05PM 29.7428 -81.1225 337° Northwest 443 510 39,000  Level Jacksonville Center
06:06PM 29.8583 -81.1778 337° Northwest 443 510 39,000  Level Jacksonville Center
06:07PM 29.9758 -81.2333 338° Northwest 443 510 39,000  Level Jacksonville Center
06:08PM 30.0936 -81.2889 338° Northwest 443 510 39,000  Level Jacksonville Center
06:09PM 30.2092 -81.3469 337° Northwest 443 510 39,000  Level Jacksonville Center
06:10PM 30.3267 -81.4006 339° North 443 510 39,000  Level Jacksonville Center
06:11PM 30.4339 -81.4519 338° Northwest 451 519 39,000  Level Jacksonville Center
06:12PM 30.5514 -81.5103 337° Northwest 456 525 39,000  Level Jacksonville Center
06:13PM 30.6667 -81.5667 337° Northwest 456 525 39,000  Level Jacksonville Center
06:14PM 30.7947 -81.6325 336° Northwest 451 519 39,000  Level Jacksonville Center
06:15PM 30.8975 -81.6844 337° Northwest 451 519 39,000  Level Jacksonville Center
06:16PM 31.0131 -81.7411 337° Northwest 451 519 39,000  Level Jacksonville Center
06:17PM 31.1283 -81.7981 337° Northwest 445 512 39,000  Level Jacksonville Center
06:18PM 31.2417 -81.8550 337° Northwest 440 506 39,000  Level Jacksonville Center
06:19PM 31.3653 -81.9144 338° Northwest 440 506 39,000  Level Jacksonville Center
06:20PM 31.4764 -81.9694 337° Northwest 426 490 39,000  Level Jacksonville Center
06:21PM 31.5769 -82.0244 335° Northwest 426 490 39,000  Level Jacksonville Center
06:23PM 31.8028 -82.1353 337° Northwest 420 483 39,000  Level Atlanta Center
06:24PM 31.9100 -82.1892 337° Northwest 420 483 39,000  Level Atlanta Center
06:25PM 32.0172 -82.2408 338° Northwest 420 483 39,000  Level Atlanta Center
06:26PM 32.1244 -82.2953 337° Northwest 420 483 39,000  Level Atlanta Center
06:27PM 32.2339 -82.3494 337° Northwest 420 483 39,000  Level Atlanta Center
06:28PM 32.3389 -82.4042 336° Northwest 420 483 39,000  Level Atlanta Center
06:29PM 32.4481 -82.4586 337° Northwest 420 483 39,000  Level Atlanta Center
06:30PM 32.5553 -82.5158 336° Northwest 420 483 39,000  Level Atlanta Center
06:31PM 32.6625 -82.5733 336° Northwest 420 483 39,000  Level Atlanta Center
06:32PM 32.7694 -82.6258 338° Northwest 420 483 39,000  Level Atlanta Center
06:33PM 32.8789 -82.6833 336° Northwest 420 483 39,000  Level Atlanta Center
06:34PM 32.9881 -82.7411 336° Northwest 420 483 39,000  Level Atlanta Center
06:35PM 33.0969 -82.7989 336° Northwest 420 483 39,000  Level Atlanta Center
06:36PM 33.2042 -82.8544 337° Northwest 420 483 39,000  Level Atlanta Center
06:37PM 33.3300 -82.9150 338° Northwest 429 494 39,000  Level Atlanta Center
06:38PM 33.4306 -82.9708 335° Northwest 429 494 39,000  Level Atlanta Center
06:39PM 33.5397 -83.0269 337° Northwest 422 486 39,000  Level Atlanta Center
06:40PM 33.6444 -83.0806 337° Northwest 412 474 39,000  Level Atlanta Center
06:41PM 33.7492 -83.1369 336° Northwest 412 474 39,000  Level Atlanta Center
06:42PM 33.8456 -83.1883 336° Northwest 412 474 39,000  Level Atlanta Center
06:43PM 33.9503 -83.2450 336° Northwest 412 474 39,000  Level Atlanta Center
06:44PM 34.0569 -83.2992 337° Northwest 411 473 39,000  Level Atlanta Center
06:45PM 34.1639 -83.3533 337° Northwest 411 473 39,000  Level Atlanta Center
06:46PM 34.2664 -83.4103 335° Northwest 416 479 39,000  Level Atlanta Center
06:47PM 34.3753 -83.4675 337° Northwest 409 471 39,000  Level Atlanta Center
06:48PM 34.4819 -83.5247 336° Northwest 420 483 39,000  Level Atlanta Center
06:49PM 34.5886 -83.5819 336° Northwest 420 483 39,000  Level Atlanta Center
06:50PM 34.6994 -83.6422 336° Northwest 420 483 39,000  Level Atlanta Center
06:51PM 34.8186 -83.7047 337° Northwest 420 483 39,000 240 Level Atlanta Center
06:52PM 34.9272 -83.7628 336° Northwest 426 490 39,600 480 Climbing Atlanta Center
06:53PM 35.0150 -83.8206 332° Northwest 412 474 40,000 180 Climbing Atlanta Center
06:54PM 35.1194 -83.8764 336° Northwest 401 461 40,000  Level Atlanta Center
06:55PM 35.2217 -83.9319 336° Northwest 401 461 40,000  Level Atlanta Center
06:56PM 35.3281 -83.9903 336° Northwest 401 461 40,000  Level Atlanta Center
06:57PM 35.4344 -84.0489 336° Northwest 406 467 40,000  Level Atlanta Center
06:58PM 35.5389 -84.1078 335° Northwest 406 467 40,000  Level Atlanta Center
06:59PM 35.6453 -84.1639 337° Northwest 406 467 40,000  Level Atlanta Center
07:00PM 35.7514 -84.2231 336° Northwest 406 467 40,000  Level Atlanta Center
07:01PM 35.8683 -84.2897 335° Northwest 414 476 40,000  Level Atlanta Center
07:03PM 36.0397 -84.3839 336° Northwest 414 476 40,000  Level Indianapolis Center
07:04PM 36.1447 -84.4417 336° Northwest 416 479 40,000  Level Indianapolis Center
07:05PM 36.2700 -84.5131 335° Northwest 415 478 40,000  Level Indianapolis Center
07:06PM 36.3747 -84.5722 336° Northwest 415 478 40,000  Level Indianapolis Center
07:07PM 36.4792 -84.6322 335° Northwest 414 476 40,000  Level Indianapolis Center
07:08PM 36.5839 -84.6911 336° Northwest 414 476 40,000  Level Indianapolis Center
07:09PM 36.6875 -84.7500 336° Northwest 412 474 40,000  Level Indianapolis Center
07:10PM 36.7919 -84.8108 335° Northwest 414 476 40,000  Level Indianapolis Center
07:11PM 36.9181 -84.8844 335° Northwest 416 479 40,000  Level Indianapolis Center
07:12PM 37.0217 -84.9425 336° Northwest 411 473 40,000  Level Indianapolis Center
07:13PM 37.1225 -84.9842 342° North 425 489 40,000  Level Indianapolis Center
07:14PM 37.2597 -85.0258 346° North 432 497 40,000  Level Indianapolis Center
07:15PM 37.3764 -85.0606 347° North 430 495 40,000  Level Indianapolis Center
07:16PM 37.4925 -85.0956 347° North 428 493 40,000  Level Indianapolis Center
07:17PM 37.6094 -85.1317 346° North 430 495 40,000  Level Indianapolis Center
07:18PM 37.7272 -85.1678 346° North 432 497 40,000  Level Indianapolis Center
07:19PM 37.8344 -85.2022 346° North 434 499 40,000  Level Indianapolis Center
07:20PM 37.9783 -85.2436 347° North 439 505 40,000  Level Indianapolis Center
07:21PM 38.0961 -85.2800 346° North 435 501 40,000  Level Indianapolis Center
07:22PM 38.2139 -85.3175 346° North 436 502 40,000 -480 Level Indianapolis Center
07:23PM 38.3289 -85.3536 346° North 430 495 39,100 -1,680 Descending Indianapolis Center
07:24PM 38.4419 -85.3886 346° North 422 486 36,600 -2,040 Descending Indianapolis Center
07:25PM 38.5600 -85.4242 347° North 432 497 35,000 -780 Descending Indianapolis Center
07:26PM 38.6775 -85.4611 346° North 441 507 35,000 -1,260 Level Indianapolis Center
07:27PM 38.8203 -85.5058 346° North 442 509 32,500 -1,740 Descending Indianapolis Center
07:28PM 38.9358 -85.5428 346° North 434 499 31,500 -960 Descending Indianapolis Center
07:29PM 39.0564 -85.5814 346° North 442 509 30,600 -900 Descending Indianapolis Center
07:31PM 39.1808 -85.6203 346° North 455 524 29,700 -840 Descending Indianapolis Center
07:32PM 39.3061 -85.6600 346° North 463 533 29,000 -360 Descending Indianapolis Center
07:33PM 39.4297 -85.6994 346° North 463 533 29,000  Level Indianapolis Center
07:34PM 39.5756 -85.7475 346° North 456 525 29,000 -1,140 Level Indianapolis Center
07:35PM 39.6972 -85.7856 346° North 455 524 26,700 -2,400 Descending Indianapolis Center
07:36PM 39.8133 -85.8236 346° North 441 507 24,200 -1,320 Descending Indianapolis Center
07:37PM 39.9244 -85.8597 346° North 422 486 24,000 -120 Descending Indianapolis Center
07:38PM 40.0375 -85.8964 346° North 422 486 24,000  Level Indianapolis Center
07:39PM 40.1267 -85.9272 345° North 421 484 24,000 -300 Level Chicago Center
07:40PM 40.2497 -85.9961 337° Northwest 406 467 23,500 -1,080 Descending Chicago Center
07:42PM 40.4556 -86.1069 338° Northwest 400 460 20,700 -1,440 Descending Chicago Center
07:43PM 40.5550 -86.1622 337° Northwest 394 453 19,100 -1,500 Descending Chicago Center
07:44PM 40.6536 -86.2164 337° Northwest 387 445 17,600 -1,620 Descending Chicago Center
07:45PM 40.7633 -86.2753 338° Northwest 380 437 15,800 -1,680 Descending Chicago Center
07:46PM 40.8594 -86.3286 337° Northwest 375 432 14,200 -1,620 Descending Chicago Center
07:47PM 40.9525 -86.3800 337° Northwest 365 420 12,600 -1,560 Descending Chicago Center
07:48PM 41.0422 -86.4339 336° Northwest 352 405 11,100 -960 Descending Chicago Center
07:49PM 41.0914 -86.5331 303° West 326 375 10,700 -540 Descending Chicago Center
07:50PM 41.1547 -86.6228 313° West 330 380 10,000 -360 Descending Chicago Center
07:51PM 41.2281 -86.7325 312° West 330 380 10,000  Level Chicago Center
07:52PM 41.2894 -86.8231 312° West 330 380 10,000 -60 Level Chicago Center
07:53PM 41.3450 -86.9061 312° West 306 352 9,900 -720 Descending Chicago Center
07:54PM 41.3922 -86.9756 312° West 262 302 8,600 -1,380 Descending Chicago Center
07:55PM 41.4386 -87.0494 310° West 260 299 7,100 -1,260 Descending Chicago Center
07:56PM 41.4706 -87.1333 297° West 258 297 6,000 -540 Descending Chicago Center
07:57PM 41.5042 -87.2139 299° West 254 292 6,000 -300 Level Chicago Center
07:58PM 41.5450 -87.3122 299° West 252 290 5,400 -540 Descending Chicago Center
07:59PM 41.5761 -87.3850 300° West 253 291 4,900 -420 Descending Chicago Center
08:02PM 41.6667 -87.5833 301° West 194 223 4,000 -540 Descending Chicago TRACON
08:03PM 41.7000 -87.6333 312° West 178 205 3,100 -960 Descending Chicago TRACON
08:04PM 41.7333 -87.6833 312° West 153 176 2,100 -900 Descending Chicago TRACON
08:05PM 41.7667 -87.7167 323° Northwest 131 151 1,300 -840 Descending Chicago TRACON
08:07PM 41.7833 -87.7500 315° West  Level FlightAware Approximate